Allwood, New Jersey
Current Conditions -  °F | °C
As of 7:51 PM on Saturday 20 Dec 2014 (Local Time) from KTEB Reporting Station
Overcast Overcast  
Wind Chill: 29°   Ceiling: 3200
Heat Index: 33°   Visibility: 10mi
Dew Point: 20°   Wind: 5mph
Humidity: 59%   Direction: 30°NNE
Pressure: 30.28"   Gusts: NA
Location:  40.8469°N, 74.1593°W
Report Text: KTEB 210051Z 03004KT 10SM OVC032 01/M07 A3028 RMK AO2 SLP253 T00061067
Loading
Personal Weather Stations






























Interactive Weather Map New forecast layout! Learn more

10-Day Weather Forecast

Advertisements
Track Severe Weather on mobile